Terminal Aerodrome Forecast
Issued by NWS

Home | Current Version | Previous Version | Text Only | Print | Product List | Glossary On
Versions: 1 2 3 4 5 6 7 8 9 10 11 12 13 14 15 16 17 18 19 20 21 22 23 24 25 26 27 28 29 30 31 32 33 34 35
000
FTUS43 KPAH 011151
TAFOWB
TAF
KOWB 011151Z 0112/0212 12005KT P6SM -RA OVC060
      TEMPO 0112/0116 6SM -RA BR BKN035 OVC050
     FM011600 22005KT 5SM -DZ BR OVC020
     FM011900 27004KT 4SM -DZ BR OVC012
     FM012300 32005KT P6SM OVC020
     FM020300 34006KT P6SM BKN150=

USA.gov is the U.S. government's official web portal to all federal, state and local government web resources and services.